RYR5EC LYNI-LOWW
Flight info
| Callsign | RYR5EC |
|---|---|
| Flight time | 0h 55m |
| Altitude | 36000 |
| Route | RAVAK DCT TONDO DCT NATEX |
| Aircraft | B738/M-SDE2E3FGHIRWXY/LB1 |
Departure
| Time | 2026-05-01 08:04 |
|---|---|
| Airport | Niš Constantine the Great Airport (LYNI) |
Arrival
| Time | 2026-05-01 09:00 |
|---|---|
| Airport | Vienna International Airport (LOWW) |
| Time | Latitude | Longitude | Altitude | Speed | Heading |
|---|---|---|---|---|---|
| 2026-05-01 07:49 | 43.33681 | 21.86642 | 654 ft | 0 kts | 66° |
| 2026-05-01 08:00 | 43.33660 | 21.86578 | 653 ft | 2 kts | 66° |
| 2026-05-01 08:01 | 43.33661 | 21.86532 | 652 ft | 1 kts | 115° |
| 2026-05-01 08:01 | 43.33661 | 21.86530 | 652 ft | 0 kts | 115° |
| 2026-05-01 08:03 | 43.33649 | 21.86567 | 652 ft | 10 kts | 114° |
| 2026-05-01 08:03 | 43.33612 | 21.86647 | 653 ft | 11 kts | 137° |
| 2026-05-01 08:03 | 43.33363 | 21.86509 | 645 ft | 28 kts | 293° |
| 2026-05-01 08:04 | 43.33763 | 21.85266 | 640 ft | 131 kts | 293° |
| 2026-05-01 08:04 | 43.34705 | 21.82598 | 1434 ft | 167 kts | 309° |
| 2026-05-01 08:05 | 43.36783 | 21.80815 | 2412 ft | 193 kts | 329° |
| 2026-05-01 08:05 | 43.37926 | 21.79697 | 2888 ft | 212 kts | 327° |
| 2026-05-01 08:05 | 43.39188 | 21.78506 | 3450 ft | 227 kts | 329° |
| 2026-05-01 08:06 | 43.42040 | 21.76032 | 4647 ft | 258 kts | 330° |
| 2026-05-01 08:06 | 43.45119 | 21.73366 | 6351 ft | 266 kts | 330° |
| 2026-05-01 08:07 | 43.48263 | 21.70630 | 8043 ft | 272 kts | 331° |
| 2026-05-01 08:07 | 43.51501 | 21.67817 | 9673 ft | 280 kts | 331° |
| 2026-05-01 08:08 | 43.53142 | 21.66391 | 10399 ft | 286 kts | 331° |
| 2026-05-01 08:08 | 43.56682 | 21.63317 | 11382 ft | 315 kts | 330° |
| 2026-05-01 08:09 | 43.60569 | 21.59931 | 12227 ft | 345 kts | 330° |
| 2026-05-01 08:09 | 43.62640 | 21.58123 | 12615 ft | 361 kts | 330° |
| 2026-05-01 08:09 | 43.64800 | 21.56236 | 12987 ft | 375 kts | 330° |
| 2026-05-01 08:10 | 43.69341 | 21.52261 | 13881 ft | 398 kts | 330° |
| 2026-05-01 08:10 | 43.74055 | 21.48123 | 15330 ft | 405 kts | 329° |
| 2026-05-01 08:11 | 43.78856 | 21.43901 | 16727 ft | 412 kts | 329° |
| 2026-05-01 08:11 | 43.83724 | 21.39613 | 17998 ft | 420 kts | 329° |
| 2026-05-01 08:12 | 43.88665 | 21.35255 | 19213 ft | 428 kts | 329° |
| 2026-05-01 08:12 | 43.91191 | 21.33023 | 19832 ft | 431 kts | 329° |
| 2026-05-01 08:12 | 43.96306 | 21.28499 | 21037 ft | 439 kts | 329° |
| 2026-05-01 08:13 | 43.98869 | 21.26229 | 21630 ft | 442 kts | 329° |
| 2026-05-01 08:13 | 44.01468 | 21.23924 | 22216 ft | 445 kts | 329° |
| 2026-05-01 08:13 | 44.06690 | 21.19285 | 23344 ft | 450 kts | 329° |
| 2026-05-01 08:14 | 44.09333 | 21.16933 | 23877 ft | 454 kts | 328° |
| 2026-05-01 08:14 | 44.12013 | 21.14545 | 24415 ft | 457 kts | 328° |
| 2026-05-01 08:14 | 44.14702 | 21.12148 | 24896 ft | 461 kts | 328° |
| 2026-05-01 08:14 | 44.17406 | 21.09733 | 25384 ft | 464 kts | 328° |
| 2026-05-01 08:15 | 44.20098 | 21.07327 | 25898 ft | 466 kts | 328° |
| 2026-05-01 08:15 | 44.25576 | 21.02420 | 27162 ft | 464 kts | 329° |
| 2026-05-01 08:15 | 44.28258 | 21.00012 | 27783 ft | 462 kts | 329° |
| 2026-05-01 08:16 | 44.30980 | 20.97566 | 28350 ft | 462 kts | 329° |
| 2026-05-01 08:16 | 44.33675 | 20.95143 | 28964 ft | 459 kts | 329° |
| 2026-05-01 08:16 | 44.36341 | 20.92742 | 29509 ft | 458 kts | 329° |
| 2026-05-01 08:16 | 44.39016 | 20.90332 | 30033 ft | 457 kts | 329° |
| 2026-05-01 08:17 | 44.41687 | 20.87922 | 30550 ft | 456 kts | 329° |
| 2026-05-01 08:17 | 44.44353 | 20.85515 | 31068 ft | 454 kts | 329° |
| 2026-05-01 08:17 | 44.46993 | 20.83128 | 31467 ft | 453 kts | 329° |
| 2026-05-01 08:17 | 44.49649 | 20.80724 | 31825 ft | 453 kts | 329° |
| 2026-05-01 08:18 | 44.52317 | 20.78308 | 32129 ft | 453 kts | 329° |
| 2026-05-01 08:18 | 44.57617 | 20.73500 | 32735 ft | 452 kts | 329° |
| 2026-05-01 08:19 | 44.62903 | 20.68693 | 33289 ft | 451 kts | 329° |
| 2026-05-01 08:19 | 44.65517 | 20.66311 | 33588 ft | 450 kts | 330° |
| 2026-05-01 08:19 | 44.68153 | 20.63906 | 33862 ft | 449 kts | 330° |
| 2026-05-01 08:19 | 44.70776 | 20.61511 | 34106 ft | 449 kts | 330° |
| 2026-05-01 08:20 | 44.73434 | 20.59081 | 34375 ft | 449 kts | 330° |
| 2026-05-01 08:20 | 44.76031 | 20.56704 | 34669 ft | 448 kts | 330° |
| 2026-05-01 08:20 | 44.78675 | 20.54284 | 34938 ft | 448 kts | 330° |
| 2026-05-01 08:20 | 44.81268 | 20.51907 | 35191 ft | 448 kts | 330° |
| 2026-05-01 08:21 | 44.83893 | 20.49498 | 35439 ft | 448 kts | 330° |
| 2026-05-01 08:21 | 44.86486 | 20.47115 | 35721 ft | 446 kts | 330° |
| 2026-05-01 08:21 | 44.89079 | 20.44730 | 35970 ft | 446 kts | 330° |
| 2026-05-01 08:21 | 44.91672 | 20.42342 | 36202 ft | 446 kts | 330° |
| 2026-05-01 08:22 | 44.94284 | 20.39935 | 36318 ft | 448 kts | 330° |
| 2026-05-01 08:22 | 44.99527 | 20.35100 | 36356 ft | 455 kts | 330° |
| 2026-05-01 08:23 | 45.04903 | 20.30208 | 36351 ft | 456 kts | 329° |
| 2026-05-01 08:23 | 45.10189 | 20.25283 | 36351 ft | 456 kts | 329° |
| 2026-05-01 08:24 | 45.15480 | 20.20331 | 36344 ft | 455 kts | 329° |
| 2026-05-01 08:24 | 45.20775 | 20.15377 | 36349 ft | 455 kts | 329° |
| 2026-05-01 08:25 | 45.26067 | 20.10426 | 36342 ft | 454 kts | 330° |
| 2026-05-01 08:25 | 45.31327 | 20.05497 | 36339 ft | 454 kts | 330° |
| 2026-05-01 08:26 | 45.36624 | 20.00526 | 36344 ft | 454 kts | 330° |
| 2026-05-01 08:26 | 45.41930 | 19.95540 | 36352 ft | 454 kts | 330° |
| 2026-05-01 08:27 | 45.47213 | 19.90560 | 36347 ft | 453 kts | 330° |
| 2026-05-01 08:27 | 45.52458 | 19.85606 | 36348 ft | 455 kts | 330° |
| 2026-05-01 08:28 | 45.57751 | 19.80595 | 36352 ft | 454 kts | 330° |
| 2026-05-01 08:28 | 45.63024 | 19.75592 | 36353 ft | 455 kts | 331° |
| 2026-05-01 08:29 | 45.68294 | 19.70577 | 36353 ft | 452 kts | 331° |
| 2026-05-01 08:29 | 45.73525 | 19.65592 | 36358 ft | 453 kts | 331° |
| 2026-05-01 08:30 | 45.78827 | 19.60529 | 36351 ft | 454 kts | 331° |
| 2026-05-01 08:30 | 45.84055 | 19.55520 | 36358 ft | 454 kts | 332° |
| 2026-05-01 08:31 | 45.89315 | 19.50470 | 36354 ft | 454 kts | 332° |
| 2026-05-01 08:31 | 45.94560 | 19.45422 | 36361 ft | 453 kts | 332° |
| 2026-05-01 08:32 | 45.99821 | 19.40349 | 36358 ft | 454 kts | 332° |
| 2026-05-01 08:32 | 46.04991 | 19.35188 | 36354 ft | 457 kts | 328° |
| 2026-05-01 08:33 | 46.09890 | 19.29153 | 36353 ft | 461 kts | 323° |
| 2026-05-01 08:33 | 46.14578 | 19.22837 | 36359 ft | 462 kts | 322° |
| 2026-05-01 08:34 | 46.19254 | 19.16489 | 36349 ft | 462 kts | 323° |
| 2026-05-01 08:34 | 46.23920 | 19.10197 | 36348 ft | 460 kts | 323° |
| 2026-05-01 08:35 | 46.28615 | 19.03892 | 36340 ft | 461 kts | 323° |
| 2026-05-01 08:35 | 46.33360 | 18.97527 | 36361 ft | 462 kts | 324° |
| 2026-05-01 08:36 | 46.38048 | 18.91229 | 36348 ft | 461 kts | 324° |
| 2026-05-01 08:36 | 46.42781 | 18.84863 | 36361 ft | 463 kts | 324° |
| 2026-05-01 08:37 | 46.47483 | 18.78519 | 36359 ft | 463 kts | 324° |
| 2026-05-01 08:37 | 46.52227 | 18.72112 | 36361 ft | 464 kts | 324° |
| 2026-05-01 08:38 | 46.56936 | 18.65730 | 36364 ft | 462 kts | 324° |
| 2026-05-01 08:38 | 46.61657 | 18.59312 | 36368 ft | 464 kts | 324° |
| 2026-05-01 08:39 | 46.66346 | 18.52926 | 36373 ft | 462 kts | 325° |
| 2026-05-01 08:39 | 46.71040 | 18.46515 | 36363 ft | 461 kts | 325° |
| 2026-05-01 08:40 | 46.78069 | 18.36887 | 36368 ft | 461 kts | 326° |
| 2026-05-01 08:40 | 46.80404 | 18.33669 | 36226 ft | 454 kts | 324° |
| 2026-05-01 08:40 | 46.82694 | 18.30505 | 35901 ft | 448 kts | 325° |
| 2026-05-01 08:41 | 46.84927 | 18.27424 | 35242 ft | 447 kts | 326° |
| 2026-05-01 08:41 | 46.87191 | 18.24304 | 34706 ft | 449 kts | 327° |
| 2026-05-01 08:41 | 46.89472 | 18.21170 | 33874 ft | 457 kts | 327° |
| 2026-05-01 08:41 | 46.91821 | 18.17947 | 32967 ft | 462 kts | 327° |
| 2026-05-01 08:42 | 46.94168 | 18.14719 | 32091 ft | 467 kts | 327° |
| 2026-05-01 08:42 | 46.96536 | 18.11452 | 31190 ft | 471 kts | 327° |
| 2026-05-01 08:42 | 46.98897 | 18.08186 | 30186 ft | 475 kts | 327° |
| 2026-05-01 08:42 | 47.01324 | 18.04819 | 29138 ft | 478 kts | 326° |
| 2026-05-01 08:43 | 47.03705 | 18.01508 | 28094 ft | 481 kts | 326° |
| 2026-05-01 08:43 | 47.06161 | 17.98088 | 26974 ft | 484 kts | 325° |
| 2026-05-01 08:43 | 47.08599 | 17.94684 | 25825 ft | 487 kts | 325° |
| 2026-05-01 08:43 | 47.11058 | 17.91250 | 24714 ft | 489 kts | 325° |
| 2026-05-01 08:44 | 47.13471 | 17.87863 | 23971 ft | 478 kts | 325° |
| 2026-05-01 08:44 | 47.15832 | 17.84527 | 23293 ft | 467 kts | 324° |
| 2026-05-01 08:44 | 47.18165 | 17.81234 | 22540 ft | 462 kts | 324° |
| 2026-05-01 08:44 | 47.20457 | 17.78002 | 21777 ft | 455 kts | 324° |
| 2026-05-01 08:45 | 47.22702 | 17.74839 | 21016 ft | 449 kts | 324° |
| 2026-05-01 08:45 | 47.24941 | 17.71686 | 20247 ft | 444 kts | 324° |
| 2026-05-01 08:45 | 47.27155 | 17.68570 | 19476 ft | 441 kts | 323° |
| 2026-05-01 08:45 | 47.29354 | 17.65472 | 18708 ft | 435 kts | 323° |
| 2026-05-01 08:46 | 47.31530 | 17.62399 | 17932 ft | 425 kts | 323° |
| 2026-05-01 08:46 | 47.33630 | 17.59427 | 17200 ft | 419 kts | 322° |
| 2026-05-01 08:46 | 47.35728 | 17.56459 | 16454 ft | 416 kts | 322° |
| 2026-05-01 08:46 | 47.37786 | 17.53549 | 15734 ft | 413 kts | 322° |
| 2026-05-01 08:47 | 47.39845 | 17.50634 | 15014 ft | 409 kts | 322° |
| 2026-05-01 08:47 | 47.41901 | 17.47718 | 14292 ft | 406 kts | 322° |
| 2026-05-01 08:47 | 47.43913 | 17.44861 | 13574 ft | 403 kts | 321° |
| 2026-05-01 08:47 | 47.45916 | 17.42013 | 12914 ft | 397 kts | 321° |
| 2026-05-01 08:48 | 47.47866 | 17.39233 | 12508 ft | 386 kts | 321° |
| 2026-05-01 08:48 | 47.49779 | 17.36499 | 12328 ft | 382 kts | 321° |
| 2026-05-01 08:48 | 47.51697 | 17.33763 | 12171 ft | 383 kts | 321° |
| 2026-05-01 08:48 | 47.53619 | 17.31021 | 11984 ft | 383 kts | 321° |
| 2026-05-01 08:49 | 47.55541 | 17.28275 | 11795 ft | 382 kts | 321° |
| 2026-05-01 08:49 | 47.57429 | 17.25572 | 11616 ft | 380 kts | 321° |
| 2026-05-01 08:49 | 47.59335 | 17.22839 | 11342 ft | 381 kts | 320° |
| 2026-05-01 08:49 | 47.61216 | 17.20137 | 11060 ft | 375 kts | 320° |
| 2026-05-01 08:50 | 47.63077 | 17.17455 | 10267 ft | 368 kts | 320° |
| 2026-05-01 08:50 | 47.64890 | 17.14846 | 9956 ft | 368 kts | 320° |
| 2026-05-01 08:50 | 47.66749 | 17.12175 | 9935 ft | 370 kts | 320° |
| 2026-05-01 08:50 | 47.68599 | 17.09513 | 9783 ft | 368 kts | 320° |
| 2026-05-01 08:51 | 47.70406 | 17.06901 | 9313 ft | 358 kts | 320° |
| 2026-05-01 08:51 | 47.72078 | 17.04280 | 8854 ft | 344 kts | 316° |
| 2026-05-01 08:51 | 47.73592 | 17.01630 | 8428 ft | 331 kts | 314° |
| 2026-05-01 08:51 | 47.75008 | 16.98997 | 8024 ft | 318 kts | 313° |
| 2026-05-01 08:52 | 47.76337 | 16.96483 | 7635 ft | 307 kts | 313° |
| 2026-05-01 08:52 | 47.77639 | 16.94031 | 7261 ft | 296 kts | 313° |
| 2026-05-01 08:52 | 47.78907 | 16.91665 | 6899 ft | 286 kts | 314° |
| 2026-05-01 08:52 | 47.80121 | 16.89414 | 6547 ft | 278 kts | 314° |
| 2026-05-01 08:53 | 47.81319 | 16.87198 | 6210 ft | 270 kts | 314° |
| 2026-05-01 08:53 | 47.82475 | 16.85064 | 5884 ft | 266 kts | 314° |
| 2026-05-01 08:53 | 47.83615 | 16.82957 | 5552 ft | 259 kts | 313° |
| 2026-05-01 08:53 | 47.84724 | 16.80903 | 5244 ft | 250 kts | 313° |
| 2026-05-01 08:54 | 47.85815 | 16.78883 | 5057 ft | 251 kts | 313° |
| 2026-05-01 08:54 | 47.86916 | 16.76844 | 4848 ft | 251 kts | 313° |
| 2026-05-01 08:54 | 47.88007 | 16.74820 | 4636 ft | 250 kts | 312° |
| 2026-05-01 08:54 | 47.89100 | 16.72790 | 4401 ft | 252 kts | 312° |
| 2026-05-01 08:55 | 47.90198 | 16.70748 | 4111 ft | 249 kts | 312° |
| 2026-05-01 08:55 | 47.91278 | 16.68737 | 3847 ft | 247 kts | 312° |
| 2026-05-01 08:55 | 47.92381 | 16.66781 | 3595 ft | 240 kts | 317° |
| 2026-05-01 08:55 | 47.93669 | 16.65506 | 3366 ft | 211 kts | 341° |
| 2026-05-01 08:56 | 47.94999 | 16.64887 | 3188 ft | 187 kts | 348° |
| 2026-05-01 08:56 | 47.96213 | 16.64421 | 3038 ft | 178 kts | 347° |
| 2026-05-01 08:56 | 47.97388 | 16.63936 | 2926 ft | 171 kts | 346° |
| 2026-05-01 08:56 | 47.98489 | 16.63476 | 2737 ft | 156 kts | 346° |
| 2026-05-01 08:57 | 47.99498 | 16.63058 | 2538 ft | 143 kts | 346° |
| 2026-05-01 08:57 | 48.00438 | 16.62664 | 2342 ft | 140 kts | 345° |
| 2026-05-01 08:57 | 48.01388 | 16.62271 | 2151 ft | 140 kts | 346° |
| 2026-05-01 08:57 | 48.02317 | 16.61882 | 1962 ft | 139 kts | 345° |
| 2026-05-01 08:58 | 48.03251 | 16.61497 | 1771 ft | 139 kts | 345° |
| 2026-05-01 08:58 | 48.04185 | 16.61102 | 1579 ft | 139 kts | 346° |
| 2026-05-01 08:58 | 48.05118 | 16.60705 | 1391 ft | 139 kts | 345° |
| 2026-05-01 08:58 | 48.06053 | 16.60311 | 1207 ft | 138 kts | 344° |
| 2026-05-01 08:59 | 48.06974 | 16.59924 | 1021 ft | 139 kts | 345° |
| 2026-05-01 08:59 | 48.07908 | 16.59541 | 838 ft | 139 kts | 344° |
| 2026-05-01 08:59 | 48.08840 | 16.59154 | 654 ft | 140 kts | 344° |
| 2026-05-01 08:59 | 48.09715 | 16.58773 | 608 ft | 104 kts | 344° |
| 2026-05-01 09:00 | 48.10213 | 16.58570 | 608 ft | 59 kts | 341° |
| 2026-05-01 09:00 | 48.10439 | 16.58314 | 608 ft | 35 kts | 303° |
| 2026-05-01 09:00 | 48.10483 | 16.58050 | 608 ft | 23 kts | 313° |
| 2026-05-01 09:00 | 48.10626 | 16.57968 | 608 ft | 21 kts | 345° |
| 2026-05-01 09:01 | 48.10766 | 16.57912 | 608 ft | 20 kts | 345° |
| 2026-05-01 09:01 | 48.10909 | 16.57850 | 608 ft | 24 kts | 344° |
| 2026-05-01 09:01 | 48.11063 | 16.57723 | 608 ft | 28 kts | 302° |
| 2026-05-01 09:01 | 48.11147 | 16.57464 | 608 ft | 27 kts | 293° |
| 2026-05-01 09:02 | 48.11227 | 16.57217 | 608 ft | 25 kts | 296° |
| 2026-05-01 09:02 | 48.11305 | 16.56983 | 608 ft | 24 kts | 297° |
| 2026-05-01 09:02 | 48.11375 | 16.56759 | 608 ft | 24 kts | 298° |
| 2026-05-01 09:02 | 48.11462 | 16.56509 | 608 ft | 29 kts | 297° |
| 2026-05-01 09:03 | 48.11555 | 16.56214 | 608 ft | 33 kts | 296° |
| 2026-05-01 09:03 | 48.11689 | 16.55983 | 608 ft | 25 kts | 352° |
| 2026-05-01 09:03 | 48.11780 | 16.55798 | 608 ft | 18 kts | 296° |
| 2026-05-01 09:03 | 48.11850 | 16.55665 | 608 ft | 16 kts | 13° |
| 2026-05-01 09:04 | 48.11900 | 16.55698 | 608 ft | 0 kts | 26° |